sensor_id;sensor_type;location;lat;lon;timestamp;P1;durP1;ratioP1;P2;durP2;ratioP2
16524;SDS011;8375;33.594;-117.718;2022-10-16T00:01:27;3.37;;;2.33;;
16524;SDS011;8375;33.594;-117.718;2022-10-16T00:03:58;3.87;;;2.47;;
16524;SDS011;8375;33.594;-117.718;2022-10-16T00:06:27;6.83;;;2.50;;
16524;SDS011;8375;33.594;-117.718;2022-10-16T00:08:57;4.40;;;2.20;;
16524;SDS011;8375;33.594;-117.718;2022-10-16T00:11:28;2.70;;;1.67;;
16524;SDS011;8375;33.594;-117.718;2022-10-16T00:13:59;6.50;;;2.57;;
16524;SDS011;8375;33.594;-117.718;2022-10-16T00:16:29;5.57;;;2.07;;
16524;SDS011;8375;33.594;-117.718;2022-10-16T00:18:58;5.53;;;2.20;;
16524;SDS011;8375;33.594;-117.718;2022-10-16T00:21:27;4.87;;;2.50;;
16524;SDS011;8375;33.594;-117.718;2022-10-16T00:23:57;6.73;;;2.40;;
16524;SDS011;8375;33.594;-117.718;2022-10-16T00:26:29;5.80;;;2.50;;
16524;SDS011;8375;33.594;-117.718;2022-10-16T00:28:59;4.63;;;2.23;;
16524;SDS011;8375;33.594;-117.718;2022-10-16T00:31:28;4.37;;;2.30;;
16524;SDS011;8375;33.594;-117.718;2022-10-16T00:33:57;5.07;;;2.53;;
16524;SDS011;8375;33.594;-117.718;2022-10-16T00:36:26;4.87;;;2.10;;
16524;SDS011;8375;33.594;-117.718;2022-10-16T00:38:57;5.50;;;2.30;;
16524;SDS011;8375;33.594;-117.718;2022-10-16T00:41:26;4.17;;;2.10;;
16524;SDS011;8375;33.594;-117.718;2022-10-16T00:44:00;5.03;;;2.10;;
16524;SDS011;8375;33.594;-117.718;2022-10-16T00:46:31;4.40;;;1.90;;
16524;SDS011;8375;33.594;-117.718;2022-10-16T00:49:04;5.60;;;2.43;;
16524;SDS011;8375;33.594;-117.718;2022-10-16T00:51:37;4.93;;;2.50;;
16524;SDS011;8375;33.594;-117.718;2022-10-16T00:54:08;5.10;;;2.20;;
16524;SDS011;8375;33.594;-117.718;2022-10-16T00:56:40;3.83;;;2.20;;
16524;SDS011;8375;33.594;-117.718;2022-10-16T00:59:11;2.80;;;1.80;;
16524;SDS011;8375;33.594;-117.718;2022-10-16T01:01:43;3.73;;;2.00;;
16524;SDS011;8375;33.594;-117.718;2022-10-16T01:04:12;4.83;;;1.77;;
16524;SDS011;8375;33.594;-117.718;2022-10-16T01:06:42;4.20;;;2.00;;
16524;SDS011;8375;33.594;-117.718;2022-10-16T01:09:20;4.47;;;2.30;;
16524;SDS011;8375;33.594;-117.718;2022-10-16T01:11:57;5.17;;;2.27;;
16524;SDS011;8375;33.594;-117.718;2022-10-16T01:14:39;4.07;;;2.03;;
16524;SDS011;8375;33.594;-117.718;2022-10-16T01:17:16;5.47;;;2.50;;
16524;SDS011;8375;33.594;-117.718;2022-10-16T01:22:38;7.60;;;4.20;;
16524;SDS011;8375;33.594;-117.718;2022-10-16T01:25:18;6.37;;;2.67;;
16524;SDS011;8375;33.594;-117.718;2022-10-16T01:27:54;7.73;;;3.00;;
16524;SDS011;8375;33.594;-117.718;2022-10-16T01:30:25;7.40;;;3.07;;
16524;SDS011;8375;33.594;-117.718;2022-10-16T01:32:56;8.23;;;3.80;;
16524;SDS011;8375;33.594;-117.718;2022-10-16T01:35:30;5.27;;;3.20;;
16524;SDS011;8375;33.594;-117.718;2022-10-16T01:38:03;8.43;;;3.73;;
16524;SDS011;8375;33.594;-117.718;2022-10-16T01:40:36;7.67;;;3.93;;
16524;SDS011;8375;33.594;-117.718;2022-10-16T01:43:11;10.70;;;8.27;;
16524;SDS011;8375;33.594;-117.718;2022-10-16T01:45:42;14.03;;;4.80;;
16524;SDS011;8375;33.594;-117.718;2022-10-16T01:48:12;17.23;;;5.60;;
16524;SDS011;8375;33.594;-117.718;2022-10-16T01:50:44;17.90;;;6.17;;
16524;SDS011;8375;33.594;-117.718;2022-10-16T01:53:22;8.73;;;5.50;;
16524;SDS011;8375;33.594;-117.718;2022-10-16T01:55:52;12.77;;;4.83;;
16524;SDS011;8375;33.594;-117.718;2022-10-16T01:58:24;13.47;;;5.67;;
16524;SDS011;8375;33.594;-117.718;2022-10-16T02:00:56;7.53;;;4.93;;
16524;SDS011;8375;33.594;-117.718;2022-10-16T02:03:24;10.23;;;5.10;;
16524;SDS011;8375;33.594;-117.718;2022-10-16T02:05:54;12.03;;;5.20;;
16524;SDS011;8375;33.594;-117.718;2022-10-16T02:08:25;12.93;;;5.50;;
16524;SDS011;8375;33.594;-117.718;2022-10-16T02:10:56;9.70;;;5.70;;
16524;SDS011;8375;33.594;-117.718;2022-10-16T02:13:30;8.00;;;5.33;;
16524;SDS011;8375;33.594;-117.718;2022-10-16T02:16:02;10.03;;;5.80;;
16524;SDS011;8375;33.594;-117.718;2022-10-16T02:18:30;9.07;;;5.67;;
16524;SDS011;8375;33.594;-117.718;2022-10-16T02:21:00;8.30;;;4.80;;
16524;SDS011;8375;33.594;-117.718;2022-10-16T02:23:34;5.47;;;4.77;;
16524;SDS011;8375;33.594;-117.718;2022-10-16T02:26:10;6.80;;;5.47;;
16524;SDS011;8375;33.594;-117.718;2022-10-16T02:28:45;7.90;;;4.63;;
16524;SDS011;8375;33.594;-117.718;2022-10-16T02:31:21;10.60;;;5.07;;
16524;SDS011;8375;33.594;-117.718;2022-10-16T02:33:55;8.33;;;5.37;;
16524;SDS011;8375;33.594;-117.718;2022-10-16T02:36:26;10.30;;;5.40;;
16524;SDS011;8375;33.594;-117.718;2022-10-16T02:38:55;7.23;;;5.47;;
16524;SDS011;8375;33.594;-117.718;2022-10-16T02:41:24;10.90;;;5.83;;
16524;SDS011;8375;33.594;-117.718;2022-10-16T02:43:55;8.90;;;5.10;;
16524;SDS011;8375;33.594;-117.718;2022-10-16T02:46:23;7.90;;;4.70;;
16524;SDS011;8375;33.594;-117.718;2022-10-16T02:48:52;5.23;;;3.80;;
16524;SDS011;8375;33.594;-117.718;2022-10-16T02:51:21;6.43;;;3.70;;
16524;SDS011;8375;33.594;-117.718;2022-10-16T02:53:49;7.67;;;4.50;;
16524;SDS011;8375;33.594;-117.718;2022-10-16T02:56:18;7.40;;;4.47;;
16524;SDS011;8375;33.594;-117.718;2022-10-16T02:58:46;9.03;;;5.57;;
16524;SDS011;8375;33.594;-117.718;2022-10-16T03:01:17;9.33;;;4.57;;
16524;SDS011;8375;33.594;-117.718;2022-10-16T03:03:45;9.03;;;4.30;;
16524;SDS011;8375;33.594;-117.718;2022-10-16T03:06:14;6.27;;;4.20;;
16524;SDS011;8375;33.594;-117.718;2022-10-16T03:08:42;8.50;;;4.90;;
16524;SDS011;8375;33.594;-117.718;2022-10-16T03:11:11;8.33;;;4.30;;
16524;SDS011;8375;33.594;-117.718;2022-10-16T03:13:39;9.13;;;4.73;;
16524;SDS011;8375;33.594;-117.718;2022-10-16T03:16:08;7.07;;;4.40;;
16524;SDS011;8375;33.594;-117.718;2022-10-16T03:18:38;7.93;;;4.70;;
16524;SDS011;8375;33.594;-117.718;2022-10-16T03:21:07;8.60;;;4.90;;
16524;SDS011;8375;33.594;-117.718;2022-10-16T03:23:35;8.20;;;5.23;;
16524;SDS011;8375;33.594;-117.718;2022-10-16T03:26:04;8.27;;;5.53;;
16524;SDS011;8375;33.594;-117.718;2022-10-16T03:28:33;7.43;;;4.57;;
16524;SDS011;8375;33.594;-117.718;2022-10-16T03:31:01;9.37;;;4.60;;
16524;SDS011;8375;33.594;-117.718;2022-10-16T03:33:30;8.43;;;4.90;;
16524;SDS011;8375;33.594;-117.718;2022-10-16T03:36:00;5.97;;;5.30;;
16524;SDS011;8375;33.594;-117.718;2022-10-16T03:38:29;9.27;;;5.40;;
16524;SDS011;8375;33.594;-117.718;2022-10-16T03:40:57;7.57;;;5.17;;
16524;SDS011;8375;33.594;-117.718;2022-10-16T03:43:26;9.20;;;5.63;;
16524;SDS011;8375;33.594;-117.718;2022-10-16T03:45:54;11.00;;;5.77;;
16524;SDS011;8375;33.594;-117.718;2022-10-16T03:48:23;10.13;;;6.17;;
16524;SDS011;8375;33.594;-117.718;2022-10-16T03:50:51;9.37;;;5.70;;
16524;SDS011;8375;33.594;-117.718;2022-10-16T03:53:22;10.00;;;5.77;;
16524;SDS011;8375;33.594;-117.718;2022-10-16T03:55:50;9.00;;;5.93;;
16524;SDS011;8375;33.594;-117.718;2022-10-16T03:58:19;9.10;;;6.17;;
16524;SDS011;8375;33.594;-117.718;2022-10-16T04:00:47;8.03;;;6.13;;
16524;SDS011;8375;33.594;-117.718;2022-10-16T04:03:16;9.43;;;6.03;;
16524;SDS011;8375;33.594;-117.718;2022-10-16T04:05:45;10.97;;;5.90;;
16524;SDS011;8375;33.594;-117.718;2022-10-16T04:08:13;13.43;;;7.03;;
16524;SDS011;8375;33.594;-117.718;2022-10-16T04:10:43;11.27;;;7.00;;
16524;SDS011;8375;33.594;-117.718;2022-10-16T04:13:12;10.47;;;6.73;;
16524;SDS011;8375;33.594;-117.718;2022-10-16T04:15:42;9.13;;;6.60;;
16524;SDS011;8375;33.594;-117.718;2022-10-16T04:18:12;9.73;;;5.73;;
16524;SDS011;8375;33.594;-117.718;2022-10-16T04:20:41;9.47;;;6.77;;
16524;SDS011;8375;33.594;-117.718;2022-10-16T04:23:09;9.87;;;6.93;;
16524;SDS011;8375;33.594;-117.718;2022-10-16T04:25:38;9.20;;;6.70;;
16524;SDS011;8375;33.594;-117.718;2022-10-16T04:28:08;10.17;;;7.87;;
16524;SDS011;8375;33.594;-117.718;2022-10-16T04:30:37;9.90;;;7.27;;
16524;SDS011;8375;33.594;-117.718;2022-10-16T04:33:07;10.07;;;7.40;;
16524;SDS011;8375;33.594;-117.718;2022-10-16T04:35:36;11.23;;;7.70;;
16524;SDS011;8375;33.594;-117.718;2022-10-16T04:38:05;14.53;;;11.50;;
16524;SDS011;8375;33.594;-117.718;2022-10-16T04:40:33;26.00;;;19.50;;
16524;SDS011;8375;33.594;-117.718;2022-10-16T04:43:02;11.70;;;7.80;;
16524;SDS011;8375;33.594;-117.718;2022-10-16T04:45:33;10.93;;;7.00;;
16524;SDS011;8375;33.594;-117.718;2022-10-16T04:48:01;10.00;;;7.50;;
16524;SDS011;8375;33.594;-117.718;2022-10-16T04:50:30;9.33;;;6.50;;
16524;SDS011;8375;33.594;-117.718;2022-10-16T04:52:59;11.87;;;6.33;;
16524;SDS011;8375;33.594;-117.718;2022-10-16T04:55:27;9.53;;;6.30;;
16524;SDS011;8375;33.594;-117.718;2022-10-16T04:57:56;10.70;;;6.80;;
16524;SDS011;8375;33.594;-117.718;2022-10-16T05:00:24;12.83;;;7.80;;
16524;SDS011;8375;33.594;-117.718;2022-10-16T05:02:55;22.37;;;8.63;;
16524;SDS011;8375;33.594;-117.718;2022-10-16T05:05:25;15.37;;;8.87;;
16524;SDS011;8375;33.594;-117.718;2022-10-16T05:07:53;16.87;;;8.07;;
16524;SDS011;8375;33.594;-117.718;2022-10-16T05:10:22;13.43;;;9.40;;
16524;SDS011;8375;33.594;-117.718;2022-10-16T05:12:50;9.97;;;6.50;;
16524;SDS011;8375;33.594;-117.718;2022-10-16T05:15:19;7.83;;;5.50;;
16524;SDS011;8375;33.594;-117.718;2022-10-16T05:17:52;8.60;;;6.40;;
16524;SDS011;8375;33.594;-117.718;2022-10-16T05:20:22;10.87;;;5.43;;
16524;SDS011;8375;33.594;-117.718;2022-10-16T05:22:51;7.63;;;5.07;;
16524;SDS011;8375;33.594;-117.718;2022-10-16T05:25:20;11.00;;;5.60;;
16524;SDS011;8375;33.594;-117.718;2022-10-16T05:27:48;7.53;;;5.60;;
16524;SDS011;8375;33.594;-117.718;2022-10-16T05:30:17;6.67;;;4.57;;
16524;SDS011;8375;33.594;-117.718;2022-10-16T05:32:46;7.50;;;5.27;;
16524;SDS011;8375;33.594;-117.718;2022-10-16T05:35:15;7.20;;;5.27;;
16524;SDS011;8375;33.594;-117.718;2022-10-16T05:37:47;11.73;;;6.30;;
16524;SDS011;8375;33.594;-117.718;2022-10-16T05:40:15;10.77;;;6.60;;
16524;SDS011;8375;33.594;-117.718;2022-10-16T05:42:44;6.97;;;6.27;;
16524;SDS011;8375;33.594;-117.718;2022-10-16T05:45:12;8.20;;;6.07;;
16524;SDS011;8375;33.594;-117.718;2022-10-16T05:47:41;11.10;;;6.60;;
16524;SDS011;8375;33.594;-117.718;2022-10-16T05:50:09;10.20;;;6.10;;
16524;SDS011;8375;33.594;-117.718;2022-10-16T05:52:38;9.57;;;7.40;;
16524;SDS011;8375;33.594;-117.718;2022-10-16T05:55:08;11.90;;;6.87;;
16524;SDS011;8375;33.594;-117.718;2022-10-16T05:57:37;14.47;;;7.07;;
16524;SDS011;8375;33.594;-117.718;2022-10-16T06:00:06;10.23;;;6.63;;
16524;SDS011;8375;33.594;-117.718;2022-10-16T06:02:35;8.90;;;6.80;;
16524;SDS011;8375;33.594;-117.718;2022-10-16T06:05:04;12.93;;;7.20;;
16524;SDS011;8375;33.594;-117.718;2022-10-16T06:07:33;11.87;;;7.50;;
16524;SDS011;8375;33.594;-117.718;2022-10-16T06:10:03;16.73;;;10.63;;
16524;SDS011;8375;33.594;-117.718;2022-10-16T06:12:33;12.43;;;9.27;;
16524;SDS011;8375;33.594;-117.718;2022-10-16T06:15:02;15.10;;;9.20;;
16524;SDS011;8375;33.594;-117.718;2022-10-16T06:17:31;12.53;;;9.63;;
16524;SDS011;8375;33.594;-117.718;2022-10-16T06:20:00;17.90;;;12.80;;
16524;SDS011;8375;33.594;-117.718;2022-10-16T06:22:28;17.37;;;12.37;;
16524;SDS011;8375;33.594;-117.718;2022-10-16T06:24:57;12.10;;;9.53;;
16524;SDS011;8375;33.594;-117.718;2022-10-16T06:27:25;12.90;;;8.87;;
16524;SDS011;8375;33.594;-117.718;2022-10-16T06:29:56;13.47;;;9.57;;
16524;SDS011;8375;33.594;-117.718;2022-10-16T06:32:24;17.83;;;11.97;;
16524;SDS011;8375;33.594;-117.718;2022-10-16T06:34:54;22.00;;;13.13;;
16524;SDS011;8375;33.594;-117.718;2022-10-16T06:37:23;22.53;;;12.13;;
16524;SDS011;8375;33.594;-117.718;2022-10-16T06:39:52;17.43;;;10.80;;
16524;SDS011;8375;33.594;-117.718;2022-10-16T06:42:20;11.80;;;8.80;;
16524;SDS011;8375;33.594;-117.718;2022-10-16T06:44:49;14.03;;;9.63;;
16524;SDS011;8375;33.594;-117.718;2022-10-16T06:47:19;15.27;;;10.53;;
16524;SDS011;8375;33.594;-117.718;2022-10-16T06:49:49;10.77;;;9.33;;
16524;SDS011;8375;33.594;-117.718;2022-10-16T06:52:18;11.53;;;8.57;;
16524;SDS011;8375;33.594;-117.718;2022-10-16T06:54:47;13.53;;;10.23;;
16524;SDS011;8375;33.594;-117.718;2022-10-16T06:57:15;13.30;;;8.97;;
16524;SDS011;8375;33.594;-117.718;2022-10-16T06:59:44;11.30;;;9.20;;
16524;SDS011;8375;33.594;-117.718;2022-10-16T07:02:13;11.63;;;9.00;;
16524;SDS011;8375;33.594;-117.718;2022-10-16T07:04:43;13.50;;;9.73;;
16524;SDS011;8375;33.594;-117.718;2022-10-16T07:07:11;12.07;;;9.70;;
16524;SDS011;8375;33.594;-117.718;2022-10-16T07:09:40;11.27;;;9.67;;
16524;SDS011;8375;33.594;-117.718;2022-10-16T07:12:10;16.13;;;11.07;;
16524;SDS011;8375;33.594;-117.718;2022-10-16T07:14:38;13.17;;;10.00;;
16524;SDS011;8375;33.594;-117.718;2022-10-16T07:17:07;15.90;;;10.60;;
16524;SDS011;8375;33.594;-117.718;2022-10-16T07:19:36;13.60;;;10.10;;
16524;SDS011;8375;33.594;-117.718;2022-10-16T07:22:07;15.63;;;11.00;;
16524;SDS011;8375;33.594;-117.718;2022-10-16T07:24:36;13.67;;;9.57;;
16524;SDS011;8375;33.594;-117.718;2022-10-16T07:27:05;16.20;;;10.13;;
16524;SDS011;8375;33.594;-117.718;2022-10-16T07:29:34;12.93;;;10.57;;
16524;SDS011;8375;33.594;-117.718;2022-10-16T07:32:02;15.53;;;10.37;;
16524;SDS011;8375;33.594;-117.718;2022-10-16T07:34:31;14.60;;;10.10;;
16524;SDS011;8375;33.594;-117.718;2022-10-16T07:37:00;14.87;;;9.93;;
16524;SDS011;8375;33.594;-117.718;2022-10-16T07:39:30;15.27;;;10.27;;
16524;SDS011;8375;33.594;-117.718;2022-10-16T07:41:58;14.57;;;10.47;;
16524;SDS011;8375;33.594;-117.718;2022-10-16T07:44:27;13.90;;;10.13;;
16524;SDS011;8375;33.594;-117.718;2022-10-16T07:46:55;15.20;;;10.20;;
16524;SDS011;8375;33.594;-117.718;2022-10-16T07:49:24;13.93;;;9.90;;
16524;SDS011;8375;33.594;-117.718;2022-10-16T07:51:53;13.77;;;9.77;;
16524;SDS011;8375;33.594;-117.718;2022-10-16T07:54:21;14.00;;;10.77;;
16524;SDS011;8375;33.594;-117.718;2022-10-16T07:56:52;15.20;;;9.80;;
16524;SDS011;8375;33.594;-117.718;2022-10-16T07:59:20;14.73;;;10.43;;
16524;SDS011;8375;33.594;-117.718;2022-10-16T08:01:49;15.23;;;10.80;;
16524;SDS011;8375;33.594;-117.718;2022-10-16T08:04:18;13.10;;;9.70;;
16524;SDS011;8375;33.594;-117.718;2022-10-16T08:06:46;12.83;;;10.33;;
16524;SDS011;8375;33.594;-117.718;2022-10-16T08:09:15;15.77;;;10.37;;
16524;SDS011;8375;33.594;-117.718;2022-10-16T08:11:43;13.60;;;10.67;;
16524;SDS011;8375;33.594;-117.718;2022-10-16T08:14:14;12.47;;;10.53;;
16524;SDS011;8375;33.594;-117.718;2022-10-16T08:16:42;10.97;;;9.37;;
16524;SDS011;8375;33.594;-117.718;2022-10-16T08:19:11;11.67;;;9.90;;
16524;SDS011;8375;33.594;-117.718;2022-10-16T08:21:41;14.60;;;10.00;;
16524;SDS011;8375;33.594;-117.718;2022-10-16T08:24:09;10.80;;;9.40;;
16524;SDS011;8375;33.594;-117.718;2022-10-16T08:26:38;14.17;;;10.80;;
16524;SDS011;8375;33.594;-117.718;2022-10-16T08:29:07;15.33;;;11.57;;
16524;SDS011;8375;33.594;-117.718;2022-10-16T08:31:37;16.90;;;10.77;;
16524;SDS011;8375;33.594;-117.718;2022-10-16T08:34:05;17.33;;;10.67;;
16524;SDS011;8375;33.594;-117.718;2022-10-16T08:36:34;12.77;;;10.90;;
16524;SDS011;8375;33.594;-117.718;2022-10-16T08:39:03;14.13;;;11.03;;
16524;SDS011;8375;33.594;-117.718;2022-10-16T08:41:46;15.70;;;10.83;;
16524;SDS011;8375;33.594;-117.718;2022-10-16T08:47:56;12.90;;;10.33;;
16524;SDS011;8375;33.594;-117.718;2022-10-16T08:50:37;17.67;;;10.27;;
16524;SDS011;8375;33.594;-117.718;2022-10-16T08:53:09;14.30;;;9.97;;
16524;SDS011;8375;33.594;-117.718;2022-10-16T08:55:43;11.93;;;9.97;;
16524;SDS011;8375;33.594;-117.718;2022-10-16T08:58:17;14.07;;;10.40;;
16524;SDS011;8375;33.594;-117.718;2022-10-16T09:00:47;16.03;;;10.70;;
16524;SDS011;8375;33.594;-117.718;2022-10-16T09:03:21;16.77;;;10.37;;
16524;SDS011;8375;33.594;-117.718;2022-10-16T09:09:02;12.03;;;9.47;;
16524;SDS011;8375;33.594;-117.718;2022-10-16T09:11:42;12.20;;;8.93;;
16524;SDS011;8375;33.594;-117.718;2022-10-16T09:14:19;14.17;;;9.83;;
16524;SDS011;8375;33.594;-117.718;2022-10-16T09:17:06;14.23;;;9.70;;
16524;SDS011;8375;33.594;-117.718;2022-10-16T09:19:51;12.33;;;10.27;;
16524;SDS011;8375;33.594;-117.718;2022-10-16T09:22:26;13.90;;;10.13;;
16524;SDS011;8375;33.594;-117.718;2022-10-16T09:24:57;12.50;;;9.60;;
16524;SDS011;8375;33.594;-117.718;2022-10-16T09:27:32;13.17;;;9.53;;
16524;SDS011;8375;33.594;-117.718;2022-10-16T09:30:00;12.23;;;9.73;;
16524;SDS011;8375;33.594;-117.718;2022-10-16T09:32:34;15.93;;;9.97;;
16524;SDS011;8375;33.594;-117.718;2022-10-16T09:35:09;12.60;;;9.77;;
16524;SDS011;8375;33.594;-117.718;2022-10-16T09:37:42;10.93;;;9.73;;
16524;SDS011;8375;33.594;-117.718;2022-10-16T09:40:23;12.07;;;9.63;;
16524;SDS011;8375;33.594;-117.718;2022-10-16T09:42:55;16.03;;;10.17;;
16524;SDS011;8375;33.594;-117.718;2022-10-16T09:45:28;12.70;;;9.63;;
16524;SDS011;8375;33.594;-117.718;2022-10-16T09:47:57;14.50;;;10.30;;
16524;SDS011;8375;33.594;-117.718;2022-10-16T09:50:30;13.50;;;9.63;;
16524;SDS011;8375;33.594;-117.718;2022-10-16T09:53:03;13.20;;;10.80;;
16524;SDS011;8375;33.594;-117.718;2022-10-16T09:55:33;16.53;;;10.93;;
16524;SDS011;8375;33.594;-117.718;2022-10-16T09:58:02;12.67;;;10.43;;
16524;SDS011;8375;33.594;-117.718;2022-10-16T10:00:39;15.23;;;10.57;;
16524;SDS011;8375;33.594;-117.718;2022-10-16T10:03:16;17.50;;;10.47;;
16524;SDS011;8375;33.594;-117.718;2022-10-16T10:06:03;13.97;;;10.87;;
16524;SDS011;8375;33.594;-117.718;2022-10-16T10:08:52;12.73;;;10.30;;
16524;SDS011;8375;33.594;-117.718;2022-10-16T10:11:38;13.70;;;11.37;;
16524;SDS011;8375;33.594;-117.718;2022-10-16T10:14:13;17.27;;;10.70;;
16524;SDS011;8375;33.594;-117.718;2022-10-16T10:16:49;11.67;;;10.43;;
16524;SDS011;8375;33.594;-117.718;2022-10-16T10:19:18;11.80;;;10.40;;
16524;SDS011;8375;33.594;-117.718;2022-10-16T10:21:50;15.13;;;10.27;;
16524;SDS011;8375;33.594;-117.718;2022-10-16T10:24:19;12.53;;;11.23;;
16524;SDS011;8375;33.594;-117.718;2022-10-16T10:26:49;16.00;;;11.77;;
16524;SDS011;8375;33.594;-117.718;2022-10-16T10:29:27;13.23;;;11.13;;
16524;SDS011;8375;33.594;-117.718;2022-10-16T10:32:08;17.53;;;11.40;;
16524;SDS011;8375;33.594;-117.718;2022-10-16T10:35:01;15.27;;;11.47;;
16524;SDS011;8375;33.594;-117.718;2022-10-16T10:37:54;17.67;;;11.33;;
16524;SDS011;8375;33.594;-117.718;2022-10-16T10:40:39;15.30;;;11.00;;
16524;SDS011;8375;33.594;-117.718;2022-10-16T10:43:20;15.43;;;11.80;;
16524;SDS011;8375;33.594;-117.718;2022-10-16T10:45:58;15.50;;;11.80;;
16524;SDS011;8375;33.594;-117.718;2022-10-16T10:48:39;12.30;;;11.10;;
16524;SDS011;8375;33.594;-117.718;2022-10-16T10:51:22;13.27;;;11.87;;
16524;SDS011;8375;33.594;-117.718;2022-10-16T10:54:03;15.67;;;11.87;;
16524;SDS011;8375;33.594;-117.718;2022-10-16T10:56:42;14.70;;;11.40;;
16524;SDS011;8375;33.594;-117.718;2022-10-16T10:59:37;14.30;;;12.10;;
16524;SDS011;8375;33.594;-117.718;2022-10-16T11:02:26;14.10;;;11.53;;
16524;SDS011;8375;33.594;-117.718;2022-10-16T11:08:04;15.13;;;11.23;;
16524;SDS011;8375;33.594;-117.718;2022-10-16T11:10:42;16.03;;;11.90;;
16524;SDS011;8375;33.594;-117.718;2022-10-16T11:13:20;14.67;;;12.33;;
16524;SDS011;8375;33.594;-117.718;2022-10-16T11:15:58;15.13;;;12.33;;
16524;SDS011;8375;33.594;-117.718;2022-10-16T11:18:32;14.03;;;11.93;;
16524;SDS011;8375;33.594;-117.718;2022-10-16T11:21:08;15.63;;;11.77;;
16524;SDS011;8375;33.594;-117.718;2022-10-16T11:23:41;17.73;;;11.60;;
16524;SDS011;8375;33.594;-117.718;2022-10-16T11:26:18;12.90;;;11.27;;
16524;SDS011;8375;33.594;-117.718;2022-10-16T11:28:50;15.67;;;12.33;;
16524;SDS011;8375;33.594;-117.718;2022-10-16T11:31:23;13.63;;;11.30;;
16524;SDS011;8375;33.594;-117.718;2022-10-16T11:33:59;16.20;;;11.33;;
16524;SDS011;8375;33.594;-117.718;2022-10-16T11:36:34;15.40;;;11.87;;
16524;SDS011;8375;33.594;-117.718;2022-10-16T11:39:09;16.77;;;11.47;;
16524;SDS011;8375;33.594;-117.718;2022-10-16T11:41:47;13.77;;;11.17;;
16524;SDS011;8375;33.594;-117.718;2022-10-16T11:44:27;13.33;;;10.90;;
16524;SDS011;8375;33.594;-117.718;2022-10-16T11:47:05;12.90;;;10.93;;
16524;SDS011;8375;33.594;-117.718;2022-10-16T11:49:40;15.27;;;10.60;;
16524;SDS011;8375;33.594;-117.718;2022-10-16T11:52:12;15.83;;;10.73;;
16524;SDS011;8375;33.594;-117.718;2022-10-16T11:54:48;12.77;;;11.23;;
16524;SDS011;8375;33.594;-117.718;2022-10-16T11:57:24;13.53;;;10.80;;
16524;SDS011;8375;33.594;-117.718;2022-10-16T11:59:57;15.67;;;10.47;;
16524;SDS011;8375;33.594;-117.718;2022-10-16T12:02:33;13.60;;;11.17;;
16524;SDS011;8375;33.594;-117.718;2022-10-16T12:05:14;13.43;;;11.17;;
16524;SDS011;8375;33.594;-117.718;2022-10-16T12:07:54;16.37;;;11.13;;
16524;SDS011;8375;33.594;-117.718;2022-10-16T12:10:29;12.33;;;11.00;;
16524;SDS011;8375;33.594;-117.718;2022-10-16T12:13:04;13.87;;;10.97;;
16524;SDS011;8375;33.594;-117.718;2022-10-16T12:16:03;13.50;;;9.93;;
16524;SDS011;8375;33.594;-117.718;2022-10-16T12:18:32;14.63;;;10.57;;
16524;SDS011;8375;33.594;-117.718;2022-10-16T12:21:01;12.60;;;9.93;;
16524;SDS011;8375;33.594;-117.718;2022-10-16T12:23:32;11.53;;;10.33;;
16524;SDS011;8375;33.594;-117.718;2022-10-16T12:26:04;14.97;;;9.87;;
16524;SDS011;8375;33.594;-117.718;2022-10-16T12:28:35;13.57;;;10.93;;
16524;SDS011;8375;33.594;-117.718;2022-10-16T12:31:05;13.10;;;10.57;;
16524;SDS011;8375;33.594;-117.718;2022-10-16T12:33:36;12.47;;;10.67;;
16524;SDS011;8375;33.594;-117.718;2022-10-16T12:36:08;12.83;;;10.37;;
16524;SDS011;8375;33.594;-117.718;2022-10-16T12:38:45;15.43;;;10.80;;
16524;SDS011;8375;33.594;-117.718;2022-10-16T12:41:24;15.17;;;10.70;;
16524;SDS011;8375;33.594;-117.718;2022-10-16T12:43:55;12.70;;;10.23;;
16524;SDS011;8375;33.594;-117.718;2022-10-16T12:46:37;14.80;;;10.67;;
16524;SDS011;8375;33.594;-117.718;2022-10-16T12:49:17;12.57;;;10.47;;
16524;SDS011;8375;33.594;-117.718;2022-10-16T12:51:57;13.80;;;11.03;;
16524;SDS011;8375;33.594;-117.718;2022-10-16T12:54:27;13.63;;;10.90;;
16524;SDS011;8375;33.594;-117.718;2022-10-16T13:00:02;11.93;;;10.43;;
16524;SDS011;8375;33.594;-117.718;2022-10-16T13:02:48;15.97;;;10.77;;
16524;SDS011;8375;33.594;-117.718;2022-10-16T13:05:34;12.40;;;10.73;;
16524;SDS011;8375;33.594;-117.718;2022-10-16T13:08:18;13.27;;;10.60;;
16524;SDS011;8375;33.594;-117.718;2022-10-16T13:11:05;12.73;;;10.20;;
16524;SDS011;8375;33.594;-117.718;2022-10-16T13:16:50;11.90;;;10.27;;
16524;SDS011;8375;33.594;-117.718;2022-10-16T13:19:29;14.30;;;10.80;;
16524;SDS011;8375;33.594;-117.718;2022-10-16T13:22:05;15.00;;;11.20;;
16524;SDS011;8375;33.594;-117.718;2022-10-16T13:24:44;15.97;;;11.17;;
16524;SDS011;8375;33.594;-117.718;2022-10-16T13:27:24;15.17;;;11.40;;
16524;SDS011;8375;33.594;-117.718;2022-10-16T13:30:00;12.43;;;11.17;;
16524;SDS011;8375;33.594;-117.718;2022-10-16T13:32:38;13.60;;;10.80;;
16524;SDS011;8375;33.594;-117.718;2022-10-16T13:35:18;12.53;;;10.80;;
16524;SDS011;8375;33.594;-117.718;2022-10-16T13:37:48;14.00;;;10.70;;
16524;SDS011;8375;33.594;-117.718;2022-10-16T13:40:21;15.87;;;11.23;;
16524;SDS011;8375;33.594;-117.718;2022-10-16T13:42:51;15.03;;;10.97;;
16524;SDS011;8375;33.594;-117.718;2022-10-16T13:45:21;13.47;;;10.90;;
16524;SDS011;8375;33.594;-117.718;2022-10-16T13:48:02;14.40;;;11.23;;
16524;SDS011;8375;33.594;-117.718;2022-10-16T13:50:33;13.63;;;10.50;;
16524;SDS011;8375;33.594;-117.718;2022-10-16T13:53:04;12.13;;;10.93;;
16524;SDS011;8375;33.594;-117.718;2022-10-16T13:55:33;14.37;;;11.47;;
16524;SDS011;8375;33.594;-117.718;2022-10-16T13:58:05;13.77;;;10.67;;
16524;SDS011;8375;33.594;-117.718;2022-10-16T14:00:35;14.80;;;12.00;;
16524;SDS011;8375;33.594;-117.718;2022-10-16T14:03:07;12.73;;;11.10;;
16524;SDS011;8375;33.594;-117.718;2022-10-16T14:05:42;13.03;;;11.67;;
16524;SDS011;8375;33.594;-117.718;2022-10-16T14:08:16;13.90;;;11.23;;
16524;SDS011;8375;33.594;-117.718;2022-10-16T14:10:47;14.10;;;11.50;;
16524;SDS011;8375;33.594;-117.718;2022-10-16T14:13:18;12.40;;;10.67;;
16524;SDS011;8375;33.594;-117.718;2022-10-16T14:15:49;14.40;;;11.50;;
16524;SDS011;8375;33.594;-117.718;2022-10-16T14:18:24;16.67;;;11.97;;
16524;SDS011;8375;33.594;-117.718;2022-10-16T14:20:55;15.30;;;12.57;;
16524;SDS011;8375;33.594;-117.718;2022-10-16T14:23:32;14.83;;;12.30;;
16524;SDS011;8375;33.594;-117.718;2022-10-16T14:26:14;14.77;;;12.70;;
16524;SDS011;8375;33.594;-117.718;2022-10-16T14:28:45;14.43;;;12.93;;
16524;SDS011;8375;33.594;-117.718;2022-10-16T14:31:24;14.83;;;13.03;;
16524;SDS011;8375;33.594;-117.718;2022-10-16T14:33:56;16.03;;;14.33;;
16524;SDS011;8375;33.594;-117.718;2022-10-16T14:36:25;14.87;;;13.17;;
16524;SDS011;8375;33.594;-117.718;2022-10-16T14:38:57;16.13;;;12.77;;
16524;SDS011;8375;33.594;-117.718;2022-10-16T14:41:29;15.07;;;13.47;;
16524;SDS011;8375;33.594;-117.718;2022-10-16T14:44:01;15.20;;;13.23;;
16524;SDS011;8375;33.594;-117.718;2022-10-16T14:46:32;14.60;;;13.20;;
16524;SDS011;8375;33.594;-117.718;2022-10-16T14:49:12;14.83;;;12.80;;
16524;SDS011;8375;33.594;-117.718;2022-10-16T14:51:45;15.53;;;13.47;;
16524;SDS011;8375;33.594;-117.718;2022-10-16T14:54:15;13.10;;;11.77;;